Time;durP1;ratioP1;P1;durP2;ratioP2;P2;SDS_P1;SDS_P2;PMS_P1;PMS_P2;Temp;Humidity;BMP_temperature;BMP_pressure;BME280_temperature;BME280_humidity;BME280_pressure;Samples;Min_cycle;Max_cycle;Signal;HPM_P1;HPM_P2
2021/06/20 00:02:57;;;;;;;11.85;7.57;;;;;;;19.56;77.57;95711.63;5220382;56;20109;-74
2021/06/20 00:08:04;;;;;;;12.55;8.02;;;;;;;19.37;78.55;95710.97;5221352;56;20208;-74
2021/06/20 00:13:07;;;;;;;9.15;7.93;;;;;;;19.29;78.76;95698.84;5220393;56;20561;-73
2021/06/20 00:18:09;;;;;;;12.25;9.13;;;;;;;19.26;79.18;95708.31;5220711;56;20166;-73
2021/06/20 00:23:12;;;;;;;10.10;8.10;;;;;;;19.28;79.29;95706.50;5220310;56;20127;-75
2021/06/20 00:28:15;;;;;;;7.47;6.78;;;;;;;19.39;78.71;95708.38;5222453;56;20583;-76
2021/06/20 00:33:17;;;;;;;7.43;6.70;;;;;;;19.36;78.83;95692.63;5224346;56;20144;-74
2021/06/20 00:38:20;;;;;;;8.10;7.13;;;;;;;19.31;78.54;95687.88;5223975;56;20131;-74
2021/06/20 00:43:22;;;;;;;8.15;7.30;;;;;;;19.27;79.20;95679.00;5223416;56;20145;-74
2021/06/20 00:48:24;;;;;;;8.27;6.82;;;;;;;19.33;78.78;95685.28;5223430;56;20127;-74
2021/06/20 00:53:27;;;;;;;7.70;7.00;;;;;;;19.25;79.58;95678.78;5214324;56;20221;-74
2021/06/20 00:58:30;;;;;;;7.85;7.10;;;;;;;19.29;78.72;95665.25;5223303;56;20137;-74
2021/06/20 01:03:32;;;;;;;7.43;6.78;;;;;;;19.54;77.86;95679.84;5223221;56;20113;-73
2021/06/20 01:08:34;;;;;;;7.47;6.78;;;;;;;19.43;77.75;95692.00;5223138;56;20131;-73
2021/06/20 01:13:37;;;;;;;8.93;7.82;;;;;;;19.27;78.54;95685.38;5223000;56;20130;-72
2021/06/20 01:18:40;;;;;;;10.75;7.25;;;;;;;19.29;79.54;95688.38;5223052;56;20113;-73
2021/06/20 01:23:42;;;;;;;7.93;7.22;;;;;;;19.28;79.84;95688.94;5223146;56;20140;-74
2021/06/20 01:28:52;;;;;;;9.75;7.05;;;;;;;19.33;79.30;95676.88;5223053;56;20132;-73
2021/06/20 01:33:55;;;;;;;8.77;7.57;;;;;;;19.40;78.21;95679.09;5214236;56;20123;-73
2021/06/20 01:38:58;;;;;;;8.60;6.88;;;;;;;19.16;79.18;95674.34;5222681;56;20136;-73
2021/06/20 01:44:01;;;;;;;8.18;7.43;;;;;;;19.00;79.80;95669.78;5222543;56;20605;-73
2021/06/20 01:49:03;;;;;;;10.45;7.28;;;;;;;19.02;79.44;95663.66;5222643;56;20122;-74
2021/06/20 01:54:05;;;;;;;8.68;7.20;;;;;;;19.02;79.94;95672.81;5222355;56;20122;-73
2021/06/20 01:59:08;;;;;;;7.35;6.68;;;;;;;18.81;81.03;95676.72;5222502;56;20707;-74
2021/06/20 02:04:10;;;;;;;9.38;7.03;;;;;;;18.83;80.98;95672.09;5222280;56;20118;-75
2021/06/20 02:09:14;;;;;;;7.40;6.70;;;;;;;18.73;81.21;95664.63;5213390;56;20681;-75
2021/06/20 02:14:17;;;;;;;8.13;7.32;;;;;;;18.71;80.47;95678.38;5222125;56;20136;-74
2021/06/20 02:19:19;;;;;;;8.27;7.47;;;;;;;18.72;80.94;95691.09;5222142;56;20122;-73
2021/06/20 02:24:22;;;;;;;7.88;7.18;;;;;;;18.80;80.84;95692.75;5222015;56;20126;-73
2021/06/20 02:29:24;;;;;;;8.13;7.32;;;;;;;18.93;80.84;95687.19;5222191;56;20122;-73
2021/06/20 02:34:26;;;;;;;8.75;7.85;;;;;;;18.74;81.08;95664.09;5221945;56;20127;-73
2021/06/20 02:39:29;;;;;;;8.05;7.35;;;;;;;18.93;80.25;95655.66;5222204;56;20128;-74
2021/06/20 02:44:32;;;;;;;9.55;7.80;;;;;;;18.66;81.23;95670.84;5222029;56;20126;-74
2021/06/20 02:49:35;;;;;;;8.02;7.22;;;;;;;18.52;80.82;95653.25;5221702;56;20139;-74
2021/06/20 02:54:52;;;;;;;8.13;7.32;;;;;;;18.60;80.43;95663.28;5221283;56;20136;-74
2021/06/20 02:59:56;;;;;;;8.30;7.47;;;;;;;18.26;81.97;95670.59;5221534;56;20126;-73
2021/06/20 03:05:00;;;;;;;8.40;7.60;;;;;;;18.13;82.67;95666.97;5212966;56;20118;-74
2021/06/20 03:10:04;;;;;;;9.20;7.32;;;;;;;18.15;83.35;95667.19;5222607;56;20122;-73
2021/06/20 03:15:07;;;;;;;11.23;8.32;;;;;;;18.13;83.45;95676.13;5221315;56;20104;-74
2021/06/20 03:20:10;;;;;;;10.05;9.05;;;;;;;18.07;83.78;95675.41;5221278;56;20113;-73
2021/06/20 03:25:13;;;;;;;8.45;7.65;;;;;;;18.10;82.95;95677.16;5221102;56;20970;-73
2021/06/20 03:30:16;;;;;;;8.38;7.30;;;;;;;18.15;82.63;95684.75;5221748;56;20187;-74
2021/06/20 03:35:19;;;;;;;8.43;7.63;;;;;;;18.15;82.73;95698.72;5221262;56;20153;-73
2021/06/20 03:40:22;;;;;;;8.43;7.68;;;;;;;18.18;83.07;95706.03;5212173;56;20574;-75
2021/06/20 03:45:24;;;;;;;8.48;7.68;;;;;;;18.16;83.22;95693.91;5220829;56;20122;-73
2021/06/20 03:50:27;;;;;;;8.63;7.85;;;;;;;18.20;82.99;95717.47;5212357;56;20118;-74
2021/06/20 03:55:30;;;;;;;8.98;8.00;;;;;;;18.31;82.79;95734.13;5220687;56;20213;-73
2021/06/20 04:00:36;;;;;;;8.95;7.80;;;;;;;18.47;82.56;95749.19;5220770;56;20135;-73
2021/06/20 04:05:39;;;;;;;8.57;7.80;;;;;;;18.63;82.00;95734.97;5219942;56;20217;-73
2021/06/20 04:10:41;;;;;;;8.65;7.80;;;;;;;19.03;80.42;95718.38;5221049;56;20118;-73
2021/06/20 04:15:43;;;;;;;8.27;7.43;;;;;;;19.21;80.41;95721.13;5220425;56;20122;-74
2021/06/20 04:20:46;;;;;;;8.82;7.93;;;;;;;19.46;79.32;95729.41;5220789;56;20131;-74
2021/06/20 04:25:48;;;;;;;8.90;8.00;;;;;;;19.70;78.48;95749.59;5211638;56;20132;-74
2021/06/20 04:30:56;;;;;;;10.27;7.10;;;;;;;20.18;76.80;95742.84;5220273;56;20122;-73
2021/06/20 04:35:59;;;;;;;8.30;7.50;;;;;;;20.58;76.51;95754.84;5220116;56;20187;-74
2021/06/20 04:41:04;;;;;;;8.80;8.00;;;;;;;21.04;76.96;95765.31;5224605;56;20242;-74
2021/06/20 04:46:21;;;;;;;8.63;7.72;;;;;;;21.65;73.66;95760.28;5233918;56;20118;-74
2021/06/20 04:51:24;;;;;;;10.02;9.02;;;;;;;21.71;73.64;95767.28;5231237;56;20180;-74
2021/06/20 04:56:26;;;;;;;9.55;8.75;;;;;;;21.64;73.37;95767.22;5216373;56;20152;-74
2021/06/20 05:01:29;;;;;;;10.63;9.50;;;;;;;21.46;74.80;95785.81;5223895;56;20127;-74
2021/06/20 05:06:31;;;;;;;13.32;9.63;;;;;;;21.65;75.01;95777.16;5223496;56;20118;-74
2021/06/20 05:11:34;;;;;;;9.68;8.73;;;;;;;22.14;72.53;95767.44;5220789;56;20311;-72
2021/06/20 05:16:36;;;;;;;14.35;8.65;;;;;;;22.72;70.43;95772.50;5222180;56;20606;-72
2021/06/20 05:21:39;;;;;;;8.63;7.85;;;;;;;23.13;68.88;95780.00;5222937;56;20209;-72
2021/06/20 05:26:41;;;;;;;9.05;8.20;;;;;;;23.45;66.77;95774.63;5214127;56;20141;-73
2021/06/20 05:31:43;;;;;;;8.32;7.53;;;;;;;23.81;64.90;95785.78;5222654;56;20122;-73
2021/06/20 05:36:47;;;;;;;9.13;7.25;;;;;;;23.99;65.01;95783.91;5222951;56;20122;-73
2021/06/20 05:41:49;;;;;;;11.80;7.18;;;;;;;24.02;63.92;95788.38;5222637;56;20126;-73
2021/06/20 05:46:52;;;;;;;8.70;7.90;;;;;;;23.62;64.07;95810.75;5223297;56;20686;-72
2021/06/20 05:51:54;;;;;;;14.45;8.02;;;;;;;23.79;64.28;95827.88;5213608;56;20140;-72
2021/06/20 05:56:57;;;;;;;9.07;8.05;;;;;;;24.24;64.00;95844.88;5223414;56;20118;-73
2021/06/20 06:01:59;;;;;;;8.18;7.38;;;;;;;24.67;62.19;95840.31;5222485;56;20122;-72
2021/06/20 06:07:01;;;;;;;8.80;7.90;;;;;;;24.44;62.63;95839.59;5222985;56;20118;-72
2021/06/20 06:12:05;;;;;;;7.93;7.13;;;;;;;24.43;62.07;95847.31;5222791;56;20122;-73
2021/06/20 06:17:07;;;;;;;9.18;7.70;;;;;;;24.22;63.05;95855.25;5222482;56;20131;-72
2021/06/20 06:22:10;;;;;;;8.30;7.43;;;;;;;24.08;62.11;95863.16;5222275;56;20140;-72
2021/06/20 06:27:13;;;;;;;10.82;7.95;;;;;;;23.83;64.15;95878.31;5222274;56;20122;-73
2021/06/20 06:32:15;;;;;;;8.20;6.93;;;;;;;23.63;63.51;95888.44;5222150;56;20114;-72
2021/06/20 06:37:18;;;;;;;15.88;8.30;;;;;;;23.65;64.74;95891.47;5222636;56;20122;-72
2021/06/20 06:42:25;;;;;;;7.97;6.57;;;;;;;23.65;63.29;95901.97;5221831;56;20702;-72
2021/06/20 06:47:29;;;;;;;8.43;6.55;;;;;;;23.42;63.96;95902.66;5222210;56;20162;-73
2021/06/20 06:52:31;;;;;;;9.82;6.35;;;;;;;23.48;63.42;95902.47;5222056;56;20274;-72
2021/06/20 06:57:34;;;;;;;11.30;6.75;;;;;;;23.59;62.29;95910.59;5222058;56;20131;-73
2021/06/20 07:02:36;;;;;;;10.65;6.20;;;;;;;23.61;64.00;95913.63;5221953;56;20131;-72
2021/06/20 07:07:39;;;;;;;9.15;5.78;;;;;;;23.61;62.86;95916.44;5221968;56;20637;-72
2021/06/20 07:12:41;;;;;;;13.43;6.05;;;;;;;23.69;63.01;95948.25;5221752;56;20117;-72
2021/06/20 07:17:44;;;;;;;14.13;5.78;;;;;;;23.46;63.53;95948.19;5221695;56;20122;-71
2021/06/20 07:22:48;;;;;;;11.35;5.47;;;;;;;23.81;62.91;95946.63;5221601;56;20135;-72
2021/06/20 07:27:51;;;;;;;10.40;5.88;;;;;;;23.54;63.85;95951.03;5221427;56;20595;-72
2021/06/20 07:32:54;;;;;;;9.02;5.68;;;;;;;23.61;63.97;95964.38;5221401;56;20132;-72
2021/06/20 07:37:57;;;;;;;10.00;5.72;;;;;;;23.52;63.93;95953.63;5221322;56;20657;-72
2021/06/20 07:42:59;;;;;;;9.90;6.20;;;;;;;23.78;62.90;95950.56;5221031;56;20131;-72
2021/06/20 07:48:02;;;;;;;12.50;5.47;;;;;;;24.10;62.52;95956.50;5221069;56;20132;-73
2021/06/20 07:53:05;;;;;;;8.48;5.45;;;;;;;24.41;62.86;95948.06;5221095;56;20131;-72
2021/06/20 07:58:10;;;;;;;9.02;5.75;;;;;;;24.66;60.46;95954.66;5220540;56;20578;-72
2021/06/20 08:03:12;;;;;;;13.32;5.53;;;;;;;25.01;59.36;95969.94;5220802;56;20126;-73
2021/06/20 08:08:17;;;;;;;13.05;5.80;;;;;;;25.10;60.24;95989.16;5219694;56;20126;-72
2021/06/20 08:13:20;;;;;;;10.48;4.57;;;;;;;25.22;58.64;95991.00;5220371;56;20647;-72
2021/06/20 08:18:22;;;;;;;11.85;4.85;;;;;;;25.01;58.78;95992.56;5220810;56;20118;-72
2021/06/20 08:23:24;;;;;;;11.45;4.60;;;;;;;25.65;57.97;95989.25;5223423;56;20140;-73
2021/06/20 08:28:27;;;;;;;15.48;5.10;;;;;;;26.07;57.23;95987.34;5220595;56;20122;-72
2021/06/20 08:33:30;;;;;;;12.70;4.95;;;;;;;26.76;54.11;95982.78;5208377;56;20122;-73
2021/06/20 08:38:32;;;;;;;14.77;4.93;;;;;;;27.39;51.91;95975.41;5217541;56;20126;-73
2021/06/20 08:43:34;;;;;;;9.75;4.60;;;;;;;27.25;52.59;95979.13;5216898;56;20127;-72
2021/06/20 08:48:37;;;;;;;13.50;4.65;;;;;;;27.41;51.61;95983.34;5218156;56;20123;-71
2021/06/20 08:53:40;;;;;;;14.18;5.32;;;;;;;28.09;48.37;95977.63;5219848;56;20123;-72
2021/06/20 08:58:45;;;;;;;13.85;4.22;;;;;;;28.43;46.16;95976.75;5221661;56;20157;-73
2021/06/20 09:03:47;;;;;;;16.55;3.85;;;;;;;27.49;49.48;95989.69;5221149;56;20122;-72
2021/06/20 09:08:55;;;;;;;12.57;3.33;;;;;;;27.51;47.88;95995.53;5219422;56;20818;-74
2021/06/20 09:14:08;;;;;;;16.73;4.07;;;;;;;28.23;47.03;95978.00;5219183;56;20127;-72
2021/06/20 09:19:11;;;;;;;18.13;4.13;;;;;;;28.69;45.98;95970.34;5220045;56;20461;-72
2021/06/20 09:24:18;;;;;;;13.73;4.35;;;;;;;28.84;43.99;95957.94;5220252;56;20123;-72
2021/06/20 09:29:39;;;;;;;14.60;4.32;;;;;;;27.80;48.03;95945.41;5218759;56;20118;-73
2021/06/20 09:34:50;;;;;;;13.48;4.35;;;;;;;27.92;47.87;95923.66;5216538;56;20135;-72
2021/06/20 09:39:53;;;;;;;17.23;4.15;;;;;;;28.88;44.72;95924.16;5220256;56;20201;-73
2021/06/20 09:44:57;;;;;;;14.73;4.22;;;;;;;29.48;42.96;95928.72;5217577;56;20126;-73
2021/06/20 09:50:00;;;;;;;18.35;4.28;;;;;;;30.31;42.38;95921.28;5220166;56;20293;-72
2021/06/20 09:55:13;;;;;;;16.50;4.10;;;;;;;30.03;43.11;95924.22;5220127;56;20127;-72
2021/06/20 10:00:16;;;;;;;9.20;3.45;;;;;;;31.52;40.45;95923.97;5220355;56;20587;-74
2021/06/20 10:05:18;;;;;;;12.75;4.00;;;;;;;30.81;40.01;95909.81;5220248;56;20654;-71
2021/06/20 10:10:22;;;;;;;15.02;3.72;;;;;;;30.14;41.38;95907.22;5216848;56;20109;-74
2021/06/20 10:15:28;;;;;;;16.52;4.78;;;;;;;31.09;42.52;95914.66;5213429;56;20600;-72
2021/06/20 10:20:34;;;;;;;13.05;4.00;;;;;;;31.32;39.13;95893.31;5216408;56;20132;-72
2021/06/20 10:25:40;;;;;;;10.07;4.13;;;;;;;30.93;40.95;95887.09;5215421;56;20626;-72
2021/06/20 10:30:45;;;;;;;20.67;4.40;;;;;;;32.68;39.03;95887.13;5218498;56;20122;-71
2021/06/20 10:36:06;;;;;;;9.60;3.75;;;;;;;31.82;38.60;95893.78;5216879;56;20163;-73
2021/06/20 10:41:23;;;;;;;12.23;3.92;;;;;;;30.45;41.72;95873.06;5215286;56;20578;-75
2021/06/20 10:46:26;;;;;;;13.27;5.00;;;;;;;29.85;43.13;95878.06;5217193;56;20127;-74
2021/06/20 10:51:30;;;;;;;15.80;4.65;;;;;;;29.29;44.15;95877.47;5215008;56;20110;-73
2021/06/20 10:56:33;;;;;;;16.17;4.18;;;;;;;32.32;40.92;95879.88;5212505;56;20604;-73
2021/06/20 11:01:42;;;;;;;16.42;4.57;;;;;;;31.48;39.72;95863.00;5210228;56;20613;-73
2021/06/20 11:06:55;;;;;;;13.93;3.85;;;;;;;30.81;42.04;95843.44;5215523;56;20565;-72
2021/06/20 11:12:02;;;;;;;18.35;4.30;;;;;;;32.59;41.16;95816.44;5215465;56;20126;-72
2021/06/20 11:17:07;;;;;;;14.80;4.13;;;;;;;30.59;44.06;95841.94;5216532;56;20127;-72
2021/06/20 11:22:13;;;;;;;19.45;4.85;;;;;;;30.70;45.84;95824.91;5212564;56;20653;-73
2021/06/20 11:27:18;;;;;;;14.63;3.75;;;;;;;31.42;43.46;95829.06;5217411;56;20557;-72
2021/06/20 11:32:23;;;;;;;14.25;3.72;;;;;;;32.24;41.94;95807.88;5215782;56;20187;-74
2021/06/20 11:37:32;;;;;;;15.77;4.28;;;;;;;33.09;40.66;95799.44;5217825;56;20215;-74
2021/06/20 11:42:40;;;;;;;18.07;3.70;;;;;;;33.68;37.84;95802.81;5216918;56;20242;-72
2021/06/20 11:47:45;;;;;;;14.65;3.40;;;;;;;33.60;40.28;95785.94;5216163;56;20113;-75
2021/06/20 11:52:49;;;;;;;14.10;4.20;;;;;;;33.86;37.11;95781.66;5197973;56;20217;-74
2021/06/20 11:57:54;;;;;;;13.77;3.85;;;;;;;32.60;40.61;95765.72;5215566;56;20247;-73
2021/06/20 12:03:02;;;;;;;11.07;3.35;;;;;;;31.12;41.38;95749.94;5199331;56;20118;-74
2021/06/20 12:08:06;;;;;;;12.50;3.50;;;;;;;31.37;42.26;95732.31;5216465;56;20135;-74
2021/06/20 12:13:09;;;;;;;11.70;4.00;;;;;;;31.10;43.20;95729.84;5210148;56;20100;-73
2021/06/20 12:18:14;;;;;;;20.05;3.72;;;;;;;31.02;42.25;95723.63;5216821;56;20168;-73
2021/06/20 12:23:26;;;;;;;16.30;3.72;;;;;;;30.54;42.10;95732.53;5212831;56;20207;-74
2021/06/20 12:28:29;;;;;;;14.40;3.40;;;;;;;30.24;41.93;95721.91;5215233;56;20665;-74
2021/06/20 12:33:31;;;;;;;15.90;2.92;;;;;;;30.62;42.15;95723.78;5213416;56;20178;-73
2021/06/20 12:38:34;;;;;;;19.17;3.65;;;;;;;30.59;42.43;95728.59;5202500;56;20096;-73
2021/06/20 12:43:36;;;;;;;10.90;3.47;;;;;;;30.20;43.35;95730.19;5219731;56;20126;-72
2021/06/20 12:48:41;;;;;;;14.15;3.42;;;;;;;30.62;41.81;95744.50;5220512;56;20118;-74
2021/06/20 12:53:45;;;;;;;12.63;3.25;;;;;;;30.92;42.81;95737.97;5210986;56;20118;-73
2021/06/20 12:58:57;;;;;;;19.67;6.47;;;;;;;30.30;44.65;95723.09;5198897;56;20122;-75
2021/06/20 13:04:12;;;;;;;19.98;4.80;;;;;;;31.70;41.99;95719.47;5208034;56;20898;-74
2021/06/20 13:09:15;;;;;;;13.48;3.72;;;;;;;31.53;41.28;95701.91;5218462;56;20588;-75
2021/06/20 13:14:24;;;;;;;18.63;3.58;;;;;;;32.40;38.98;95685.88;5210188;56;20109;-73
2021/06/20 13:19:28;;;;;;;18.65;4.00;;;;;;;31.38;43.92;95676.66;5199002;56;20109;-74
2021/06/20 13:24:31;;;;;;;13.52;4.00;;;;;;;32.03;39.58;95667.91;5202062;56;20200;-73
2021/06/20 13:29:34;;;;;;;11.05;3.67;;;;;;;31.83;42.54;95664.56;5208941;56;20650;-72
2021/06/20 13:34:36;;;;;;;15.05;3.63;;;;;;;30.96;43.49;95644.06;5210731;56;20152;-74
2021/06/20 13:39:39;;;;;;;14.00;5.10;;;;;;;29.70;43.62;95628.47;5220131;56;20173;-74
2021/06/20 13:44:42;;;;;;;13.85;3.88;;;;;;;30.25;44.69;95606.53;5210655;56;20761;-72
2021/06/20 13:49:44;;;;;;;14.80;3.67;;;;;;;30.14;44.14;95592.97;5208977;56;20114;-73
2021/06/20 13:54:54;;;;;;;14.10;3.45;;;;;;;29.89;45.51;95601.25;5210972;56;20163;-73
2021/06/20 13:59:57;;;;;;;16.90;3.97;;;;;;;29.66;44.42;95591.19;5218116;56;20581;-74
2021/06/20 14:04:59;;;;;;;13.63;3.85;;;;;;;29.68;44.90;95582.75;5198062;56;20130;-74
2021/06/20 14:10:11;;;;;;;11.75;3.88;;;;;;;29.09;45.71;95580.03;5209373;56;20209;-73
2021/06/20 14:15:14;;;;;;;12.15;3.22;;;;;;;29.90;47.17;95560.75;5212650;56;20122;-72
2021/06/20 14:20:17;;;;;;;18.30;4.30;;;;;;;29.90;44.86;95545.78;5218119;56;20597;-72
2021/06/20 14:25:20;;;;;;;13.32;4.03;;;;;;;31.99;41.07;95536.19;5211163;56;20688;-74
2021/06/20 14:30:23;;;;;;;9.77;4.07;;;;;;;30.80;43.13;95526.03;5211118;56;20496;-74
2021/06/20 14:35:26;;;;;;;16.73;3.97;;;;;;;31.30;44.30;95527.69;5213421;56;20136;-73
2021/06/20 14:40:28;;;;;;;17.30;4.78;;;;;;;30.44;44.90;95524.44;5215800;56;20131;-74
2021/06/20 14:45:31;;;;;;;17.30;4.63;;;;;;;29.82;46.37;95511.03;5222491;56;20126;-74
2021/06/20 14:50:33;;;;;;;11.35;4.03;;;;;;;30.43;45.05;95508.72;5209955;56;20118;-74
2021/06/20 14:55:36;;;;;;;9.82;4.35;;;;;;;31.01;42.37;95511.69;5210360;56;20632;-72
2021/06/20 15:00:38;;;;;;;10.98;4.18;;;;;;;30.88;45.00;95502.97;5212901;56;20538;-73
2021/06/20 15:05:41;;;;;;;17.33;3.65;;;;;;;30.36;45.98;95494.69;5203905;56;20225;-72
2021/06/20 15:10:43;;;;;;;15.75;4.45;;;;;;;31.53;44.40;95497.03;5223955;56;20117;-74
2021/06/20 15:15:47;;;;;;;16.25;4.10;;;;;;;30.78;42.83;95503.06;5218560;56;20122;-72
2021/06/20 15:20:51;;;;;;;16.40;4.18;;;;;;;30.35;42.27;95493.22;5211978;56;20104;-73
2021/06/20 15:25:54;;;;;;;15.13;3.78;;;;;;;30.42;44.14;95481.56;5210842;56;20229;-74
2021/06/20 15:30:56;;;;;;;14.35;4.10;;;;;;;30.17;43.62;95472.78;5208620;56;20109;-72
2021/06/20 15:35:59;;;;;;;17.75;4.55;;;;;;;30.72;43.80;95470.56;5218172;56;20126;-72
2021/06/20 15:41:02;;;;;;;17.02;4.72;;;;;;;30.38;43.82;95469.91;5218929;56;20223;-74
2021/06/20 15:46:07;;;;;;;14.90;4.57;;;;;;;30.12;45.29;95461.75;5200165;56;20217;-73
2021/06/20 15:51:10;;;;;;;12.18;4.05;;;;;;;29.68;45.86;95463.16;5198633;56;20104;-73
2021/06/20 15:56:13;;;;;;;13.73;4.28;;;;;;;29.21;47.17;95472.78;5201411;56;20108;-72
2021/06/20 16:01:17;;;;;;;11.07;4.00;;;;;;;29.01;45.84;95465.69;5219147;56;20122;-72
2021/06/20 16:06:19;;;;;;;9.95;3.75;;;;;;;28.39;48.81;95459.16;5217646;56;20126;-70
2021/06/20 16:11:22;;;;;;;12.82;3.88;;;;;;;28.72;48.53;95456.53;5202013;56;20117;-71
2021/06/20 16:16:26;;;;;;;15.65;3.85;;;;;;;28.83;47.50;95439.59;5209039;56;20240;-71
2021/06/20 16:21:28;;;;;;;14.73;4.00;;;;;;;28.86;47.66;95431.91;5200399;56;20144;-72
2021/06/20 16:26:31;;;;;;;12.48;4.00;;;;;;;28.69;48.69;95435.75;5216938;56;20131;-72
2021/06/20 16:31:34;;;;;;;14.00;3.53;;;;;;;28.74;49.13;95416.88;5199794;56;20127;-72
2021/06/20 16:36:36;;;;;;;20.10;4.50;;;;;;;28.48;49.32;95415.00;5211532;56;20127;-71
2021/06/20 16:41:39;;;;;;;13.15;4.45;;;;;;;28.69;49.98;95406.56;5211335;56;20126;-71
2021/06/20 16:46:43;;;;;;;9.55;3.75;;;;;;;28.54;50.05;95396.28;5199579;56;20123;-70
2021/06/20 16:51:46;;;;;;;14.27;3.70;;;;;;;28.68;48.94;95394.44;5207102;56;20176;-72
2021/06/20 16:56:48;;;;;;;14.38;3.90;;;;;;;28.38;50.03;95378.13;5208255;56;20235;-72
2021/06/20 17:01:51;;;;;;;17.08;3.90;;;;;;;27.74;53.13;95354.38;5208325;56;20118;-71
2021/06/20 17:06:54;;;;;;;17.60;4.07;;;;;;;27.71;52.29;95344.19;5209666;56;20153;-72
2021/06/20 17:11:57;;;;;;;18.42;4.28;;;;;;;27.49;53.88;95319.91;5233004;45;20136;-76
2021/06/20 17:17:38;;;;;;;13.85;3.78;;;;;;;27.31;53.68;95316.47;5195947;57;20126;-75
2021/06/20 17:22:42;;;;;;;17.02;3.85;;;;;;;26.96;53.29;95292.59;5196225;56;20123;-76
2021/06/20 17:27:47;;;;;;;13.40;3.75;;;;;;;26.82;54.46;95285.88;5200323;57;20162;-76
2021/06/20 17:32:49;;;;;;;20.33;5.05;;;;;;;26.66;55.23;95279.72;5199347;56;20137;-75
2021/06/20 17:37:52;;;;;;;20.15;4.20;;;;;;;26.51;55.61;95260.16;5199443;56;20128;-76
2021/06/20 17:42:54;;;;;;;15.75;3.90;;;;;;;26.47;55.86;95242.84;5201743;56;20114;-76
2021/06/20 17:47:57;;;;;;;14.00;3.80;;;;;;;26.35;56.20;95261.03;5201878;57;20240;-76
2021/06/20 17:53:00;;;;;;;12.77;4.30;;;;;;;26.41;56.67;95278.50;5201277;56;20128;-76
2021/06/20 17:58:02;;;;;;;18.17;4.53;;;;;;;26.25;57.16;95280.84;5202213;57;20127;-77
2021/06/20 18:03:05;;;;;;;16.27;3.90;;;;;;;25.99;58.12;95273.88;5193047;56;20164;-77
2021/06/20 18:08:07;;;;;;;12.80;3.90;;;;;;;25.96;57.71;95255.22;5201652;57;20119;-77
2021/06/20 18:13:10;;;;;;;21.17;4.18;;;;;;;26.02;57.25;95267.03;5192061;56;20145;-76
2021/06/20 18:18:13;;;;;;;14.98;3.83;;;;;;;25.86;57.93;95256.53;5200155;57;20132;-75
2021/06/20 18:23:16;;;;;;;16.52;4.25;;;;;;;25.72;58.61;95249.78;5197964;56;20199;-75
2021/06/20 18:28:19;;;;;;;14.10;4.30;;;;;;;25.61;58.84;95234.84;5204687;56;20114;-76
2021/06/20 18:33:21;;;;;;;11.48;3.70;;;;;;;25.56;59.65;95224.56;5203536;56;20606;-76
2021/06/20 18:38:24;;;;;;;14.77;4.32;;;;;;;25.35;59.83;95215.78;5202575;57;20128;-76
2021/06/20 18:43:27;;;;;;;15.23;4.07;;;;;;;25.26;59.68;95216.47;5202027;56;20683;-76
2021/06/20 18:48:29;;;;;;;12.50;3.72;;;;;;;25.08;60.16;95192.41;5200721;57;20132;-76
2021/06/20 18:53:32;;;;;;;12.88;3.85;;;;;;;25.17;60.22;95211.50;5191286;57;20106;-76
2021/06/20 18:58:34;;;;;;;11.07;3.58;;;;;;;25.04;60.58;95216.78;5200962;57;20217;-76
2021/06/20 19:03:37;;;;;;;14.27;3.80;;;;;;;24.79;61.83;95208.44;5200468;56;20618;-76
2021/06/20 19:08:40;;;;;;;11.38;4.25;;;;;;;24.81;61.46;95212.19;5193099;57;20575;-76
2021/06/20 19:13:43;;;;;;;9.88;3.13;;;;;;;24.66;62.26;95194.63;5198175;56;20128;-78
2021/06/20 19:18:47;;;;;;;16.80;3.58;;;;;;;24.47;64.03;95212.19;5201753;57;20123;-76
2021/06/20 19:23:50;;;;;;;17.35;4.05;;;;;;;24.33;64.00;95201.81;5198807;56;20128;-75
2021/06/20 19:28:52;;;;;;;14.07;3.75;;;;;;;24.34;63.37;95200.47;5198803;57;20119;-75
2021/06/20 19:33:54;;;;;;;13.00;4.07;;;;;;;24.21;64.58;95210.03;5190014;57;20704;-75
2021/06/20 19:38:57;;;;;;;12.55;3.65;;;;;;;24.28;64.26;95212.03;5199905;57;20123;-76
2021/06/20 19:43:59;;;;;;;14.23;3.58;;;;;;;24.13;64.05;95229.13;5199547;56;20141;-76
2021/06/20 19:49:02;;;;;;;10.52;3.88;;;;;;;24.08;65.11;95235.75;5195049;57;20645;-76
2021/06/20 19:54:05;;;;;;;16.48;3.92;;;;;;;24.01;64.75;95226.00;5199824;56;20154;-76
2021/06/20 19:59:08;;;;;;;12.18;4.88;;;;;;;23.97;65.81;95236.94;5194919;56;20141;-75
2021/06/20 20:04:10;;;;;;;11.38;3.67;;;;;;;23.87;66.26;95227.63;5208277;56;20156;-75
2021/06/20 20:09:13;;;;;;;14.02;3.95;;;;;;;23.57;67.45;95205.28;5204443;56;20109;-75
2021/06/20 20:14:15;;;;;;;15.75;4.18;;;;;;;23.50;67.88;95214.56;5192036;57;20123;-75
2021/06/20 20:19:17;;;;;;;15.32;4.22;;;;;;;23.46;67.76;95231.13;5199679;57;20602;-76
2021/06/20 20:24:20;;;;;;;12.02;4.28;;;;;;;23.21;68.79;95245.19;5199785;56;20127;-75
2021/06/20 20:29:22;;;;;;;10.90;4.03;;;;;;;23.36;67.24;95250.00;5199082;57;20114;-75
2021/06/20 20:34:25;;;;;;;18.67;4.55;;;;;;;23.62;65.13;95257.91;5199871;56;20229;-76
2021/06/20 20:39:28;;;;;;;15.65;4.53;;;;;;;23.83;64.08;95269.59;5199357;57;20742;-76
2021/06/20 20:44:30;;;;;;;15.35;4.20;;;;;;;23.67;64.94;95237.19;5200564;56;20140;-75
2021/06/20 20:49:33;;;;;;;14.48;4.30;;;;;;;23.57;65.71;95269.41;5194290;57;20132;-76
2021/06/20 20:54:35;;;;;;;12.60;3.85;;;;;;;23.39;66.36;95271.41;5202843;56;20133;-74
2021/06/20 20:59:38;;;;;;;20.13;3.70;;;;;;;23.34;65.82;95290.03;5202498;57;20132;-75
2021/06/20 21:04:40;;;;;;;13.13;4.70;;;;;;;23.37;66.00;95282.50;5203110;56;20154;-76
2021/06/20 21:09:43;;;;;;;11.70;3.95;;;;;;;23.26;66.48;95291.38;5201001;57;20118;-77
2021/06/20 21:14:46;;;;;;;21.83;4.32;;;;;;;23.23;66.62;95295.34;5192832;57;20647;-76
2021/06/20 21:19:48;;;;;;;17.92;4.03;;;;;;;23.16;67.24;95284.88;5201536;57;20123;-76
2021/06/20 21:24:52;;;;;;;16.27;3.60;;;;;;;23.11;67.64;95302.72;5200642;56;20158;-77
2021/06/20 21:29:54;;;;;;;10.68;3.63;;;;;;;23.00;68.58;95309.53;5202057;56;20118;-75
2021/06/20 21:34:57;;;;;;;17.30;4.63;;;;;;;22.89;68.99;95303.59;5202146;56;20137;-75
2021/06/20 21:40:01;;;;;;;13.70;4.10;;;;;;;22.74;70.04;95301.53;5193450;57;20119;-76
2021/06/20 21:45:03;;;;;;;15.20;4.78;;;;;;;22.59;70.57;95310.75;5201979;56;20114;-75
2021/06/20 21:50:11;;;;;;;8.10;3.53;;;;;;;22.32;71.81;95309.66;5198086;57;20102;-75
2021/06/20 21:55:16;;;;;;;16.48;4.13;;;;;;;22.26;71.87;95316.81;5200589;56;20114;-75
2021/06/20 22:00:21;;;;;;;11.65;3.63;;;;;;;22.19;71.78;95338.00;5200492;57;20171;-77
2021/06/20 22:05:24;;;;;;;10.15;4.25;;;;;;;21.66;74.80;95357.66;5201435;56;20132;-75
2021/06/20 22:10:27;;;;;;;9.75;3.88;;;;;;;21.54;75.87;95364.16;5202127;57;20136;-75
2021/06/20 22:15:29;;;;;;;16.52;4.15;;;;;;;21.45;76.26;95331.72;5200904;56;20123;-75
2021/06/20 22:20:32;;;;;;;7.35;3.80;;;;;;;21.56;74.95;95347.47;5201345;56;20137;-75
2021/06/20 22:25:35;;;;;;;11.63;3.83;;;;;;;21.50;75.50;95353.28;5199863;57;20182;-75
2021/06/20 22:30:39;;;;;;;12.75;4.57;;;;;;;21.35;76.53;95365.22;5199876;56;20158;-75
2021/06/20 22:35:42;;;;;;;13.00;4.95;;;;;;;21.27;76.65;95380.56;5198262;57;20123;-76
2021/06/20 22:40:44;;;;;;;12.70;4.15;;;;;;;21.17;77.70;95382.38;5198821;56;20123;-75
2021/06/20 22:45:47;;;;;;;11.43;4.22;;;;;;;21.11;77.76;95382.56;5198714;56;20110;-75
2021/06/20 22:50:51;;;;;;;12.30;4.55;;;;;;;21.11;77.86;95419.09;5199429;56;20097;-76
2021/06/20 22:55:53;;;;;;;10.60;3.60;;;;;;;20.88;79.02;95432.22;5198978;57;20119;-76
2021/06/20 23:00:56;;;;;;;18.35;4.70;;;;;;;21.01;78.72;95439.78;5200381;56;20109;-75
2021/06/20 23:05:58;;;;;;;14.07;5.20;;;;;;;20.90;79.22;95434.47;5199478;57;20215;-75
2021/06/20 23:11:01;;;;;;;13.02;3.95;;;;;;;20.88;78.10;95431.47;5199280;56;20105;-75
2021/06/20 23:16:04;;;;;;;13.55;4.00;;;;;;;20.65;77.67;95434.88;5181856;57;20132;-75
2021/06/20 23:21:06;;;;;;;10.93;3.90;;;;;;;20.53;78.24;95407.66;5186966;56;20390;-75
2021/06/20 23:26:09;;;;;;;9.95;3.92;;;;;;;20.44;78.68;95389.25;5189118;57;20218;-75
2021/06/20 23:31:12;;;;;;;8.82;3.22;;;;;;;20.31;78.83;95394.22;5180331;56;20659;-75
2021/06/20 23:36:14;;;;;;;11.70;3.60;;;;;;;20.27;78.92;95385.38;5182556;57;20137;-75